sensor_id;sensor_type;location;lat;lon;timestamp;temperature;humidity
32614;DHT22;19031;51.400;6.770;2024-02-26T00:00:10;6.80;99.90
32614;DHT22;19031;51.400;6.770;2024-02-26T00:02:37;6.80;99.90
32614;DHT22;19031;51.400;6.770;2024-02-26T00:05:06;6.90;99.90
32614;DHT22;19031;51.400;6.770;2024-02-26T00:07:32;6.80;99.90
32614;DHT22;19031;51.400;6.770;2024-02-26T00:09:58;6.80;99.90
32614;DHT22;19031;51.400;6.770;2024-02-26T00:12:24;6.80;99.90
32614;DHT22;19031;51.400;6.770;2024-02-26T00:14:49;6.80;99.90
32614;DHT22;19031;51.400;6.770;2024-02-26T00:17:15;6.70;99.90
32614;DHT22;19031;51.400;6.770;2024-02-26T00:19:41;6.70;99.90
32614;DHT22;19031;51.400;6.770;2024-02-26T00:22:07;6.70;99.90
32614;DHT22;19031;51.400;6.770;2024-02-26T00:24:32;6.60;99.90
32614;DHT22;19031;51.400;6.770;2024-02-26T00:26:59;6.60;99.90
32614;DHT22;19031;51.400;6.770;2024-02-26T00:29:25;6.50;99.90
32614;DHT22;19031;51.400;6.770;2024-02-26T00:31:51;6.60;99.90
32614;DHT22;19031;51.400;6.770;2024-02-26T00:34:17;6.60;99.90
32614;DHT22;19031;51.400;6.770;2024-02-26T00:36:42;6.50;99.90
32614;DHT22;19031;51.400;6.770;2024-02-26T00:39:08;6.40;99.90
32614;DHT22;19031;51.400;6.770;2024-02-26T00:41:38;6.50;99.90
32614;DHT22;19031;51.400;6.770;2024-02-26T00:44:04;6.40;99.90
32614;DHT22;19031;51.400;6.770;2024-02-26T00:46:29;6.50;99.90
32614;DHT22;19031;51.400;6.770;2024-02-26T00:48:55;6.50;99.90
32614;DHT22;19031;51.400;6.770;2024-02-26T00:51:20;6.50;99.90
32614;DHT22;19031;51.400;6.770;2024-02-26T00:53:46;6.60;99.90
32614;DHT22;19031;51.400;6.770;2024-02-26T00:56:11;6.60;99.90
32614;DHT22;19031;51.400;6.770;2024-02-26T00:58:37;6.60;99.90
32614;DHT22;19031;51.400;6.770;2024-02-26T01:01:02;6.70;99.90
32614;DHT22;19031;51.400;6.770;2024-02-26T01:03:28;6.80;99.90
32614;DHT22;19031;51.400;6.770;2024-02-26T01:05:54;6.70;99.90
32614;DHT22;19031;51.400;6.770;2024-02-26T01:08:20;6.70;99.90
32614;DHT22;19031;51.400;6.770;2024-02-26T01:10:45;6.70;99.90
32614;DHT22;19031;51.400;6.770;2024-02-26T01:13:11;6.70;99.90
32614;DHT22;19031;51.400;6.770;2024-02-26T01:15:36;6.80;99.90
32614;DHT22;19031;51.400;6.770;2024-02-26T01:18:02;6.80;99.90
32614;DHT22;19031;51.400;6.770;2024-02-26T01:20:28;6.90;99.90
32614;DHT22;19031;51.400;6.770;2024-02-26T01:22:53;6.80;99.90
32614;DHT22;19031;51.400;6.770;2024-02-26T01:25:19;6.80;99.90
32614;DHT22;19031;51.400;6.770;2024-02-26T01:27:44;6.80;99.90
32614;DHT22;19031;51.400;6.770;2024-02-26T01:30:11;6.90;99.90
32614;DHT22;19031;51.400;6.770;2024-02-26T01:32:36;6.90;99.90
32614;DHT22;19031;51.400;6.770;2024-02-26T01:35:03;6.80;99.90
32614;DHT22;19031;51.400;6.770;2024-02-26T01:37:29;6.80;99.90
32614;DHT22;19031;51.400;6.770;2024-02-26T01:39:55;6.70;99.90
32614;DHT22;19031;51.400;6.770;2024-02-26T01:42:21;6.70;99.90
32614;DHT22;19031;51.400;6.770;2024-02-26T01:44:46;6.70;99.90
32614;DHT22;19031;51.400;6.770;2024-02-26T01:47:12;6.70;99.90
32614;DHT22;19031;51.400;6.770;2024-02-26T01:49:39;6.70;99.90
32614;DHT22;19031;51.400;6.770;2024-02-26T01:52:06;6.60;99.90
32614;DHT22;19031;51.400;6.770;2024-02-26T01:54:35;6.70;99.90
32614;DHT22;19031;51.400;6.770;2024-02-26T01:57:02;6.60;99.90
32614;DHT22;19031;51.400;6.770;2024-02-26T01:59:28;6.60;99.90
32614;DHT22;19031;51.400;6.770;2024-02-26T02:01:55;6.60;99.90
32614;DHT22;19031;51.400;6.770;2024-02-26T02:04:23;6.60;99.90
32614;DHT22;19031;51.400;6.770;2024-02-26T02:06:49;6.50;99.90
32614;DHT22;19031;51.400;6.770;2024-02-26T02:09:15;6.50;99.90
32614;DHT22;19031;51.400;6.770;2024-02-26T02:11:41;6.50;99.90
32614;DHT22;19031;51.400;6.770;2024-02-26T02:14:07;6.50;99.90
32614;DHT22;19031;51.400;6.770;2024-02-26T02:16:32;6.60;99.90
32614;DHT22;19031;51.400;6.770;2024-02-26T02:19:01;6.60;99.90
32614;DHT22;19031;51.400;6.770;2024-02-26T02:21:26;6.60;99.90
32614;DHT22;19031;51.400;6.770;2024-02-26T02:23:52;6.60;99.90
32614;DHT22;19031;51.400;6.770;2024-02-26T02:26:18;6.60;99.90
32614;DHT22;19031;51.400;6.770;2024-02-26T02:28:45;6.50;99.90
32614;DHT22;19031;51.400;6.770;2024-02-26T02:31:11;6.50;99.90
32614;DHT22;19031;51.400;6.770;2024-02-26T02:33:37;6.50;99.90
32614;DHT22;19031;51.400;6.770;2024-02-26T02:36:03;6.50;99.90
32614;DHT22;19031;51.400;6.770;2024-02-26T02:38:29;6.50;99.90
32614;DHT22;19031;51.400;6.770;2024-02-26T02:40:55;6.60;99.90
32614;DHT22;19031;51.400;6.770;2024-02-26T02:43:21;6.60;99.90
32614;DHT22;19031;51.400;6.770;2024-02-26T02:45:46;6.60;99.90
32614;DHT22;19031;51.400;6.770;2024-02-26T02:48:12;6.60;99.90
32614;DHT22;19031;51.400;6.770;2024-02-26T02:50:39;6.60;99.90
32614;DHT22;19031;51.400;6.770;2024-02-26T02:53:04;6.50;99.90
32614;DHT22;19031;51.400;6.770;2024-02-26T02:55:30;6.70;99.90
32614;DHT22;19031;51.400;6.770;2024-02-26T02:57:55;6.50;99.90
32614;DHT22;19031;51.400;6.770;2024-02-26T03:00:21;6.40;99.90
32614;DHT22;19031;51.400;6.770;2024-02-26T03:02:50;6.50;99.90
32614;DHT22;19031;51.400;6.770;2024-02-26T03:05:15;6.50;99.90
32614;DHT22;19031;51.400;6.770;2024-02-26T03:07:41;6.50;99.90
32614;DHT22;19031;51.400;6.770;2024-02-26T03:10:07;6.50;99.90
32614;DHT22;19031;51.400;6.770;2024-02-26T03:12:34;6.50;99.90
32614;DHT22;19031;51.400;6.770;2024-02-26T03:15:00;6.50;99.90
32614;DHT22;19031;51.400;6.770;2024-02-26T03:17:28;6.50;99.90
32614;DHT22;19031;51.400;6.770;2024-02-26T03:19:54;6.40;99.90
32614;DHT22;19031;51.400;6.770;2024-02-26T03:22:20;6.30;99.90
32614;DHT22;19031;51.400;6.770;2024-02-26T03:24:46;6.20;99.90
32614;DHT22;19031;51.400;6.770;2024-02-26T03:27:12;6.20;99.90
32614;DHT22;19031;51.400;6.770;2024-02-26T03:29:38;6.20;99.90
32614;DHT22;19031;51.400;6.770;2024-02-26T03:32:04;6.10;99.90
32614;DHT22;19031;51.400;6.770;2024-02-26T03:34:30;6.00;99.90
32614;DHT22;19031;51.400;6.770;2024-02-26T03:36:56;6.00;99.90
32614;DHT22;19031;51.400;6.770;2024-02-26T03:39:22;6.00;99.90
32614;DHT22;19031;51.400;6.770;2024-02-26T03:41:48;6.00;99.90
32614;DHT22;19031;51.400;6.770;2024-02-26T03:44:14;6.00;99.90
32614;DHT22;19031;51.400;6.770;2024-02-26T03:46:40;6.00;99.90
32614;DHT22;19031;51.400;6.770;2024-02-26T03:49:08;6.00;99.90
32614;DHT22;19031;51.400;6.770;2024-02-26T03:51:33;5.90;99.90
32614;DHT22;19031;51.400;6.770;2024-02-26T03:53:59;5.90;99.90
32614;DHT22;19031;51.400;6.770;2024-02-26T03:56:25;6.00;99.90
32614;DHT22;19031;51.400;6.770;2024-02-26T03:58:51;5.80;99.90
32614;DHT22;19031;51.400;6.770;2024-02-26T04:01:17;5.80;99.90
32614;DHT22;19031;51.400;6.770;2024-02-26T04:03:42;5.70;99.90
32614;DHT22;19031;51.400;6.770;2024-02-26T04:06:09;5.80;99.90
32614;DHT22;19031;51.400;6.770;2024-02-26T04:08:40;5.60;99.90
32614;DHT22;19031;51.400;6.770;2024-02-26T04:11:06;5.70;99.90
32614;DHT22;19031;51.400;6.770;2024-02-26T04:13:33;5.70;99.90
32614;DHT22;19031;51.400;6.770;2024-02-26T04:15:59;5.70;99.90
32614;DHT22;19031;51.400;6.770;2024-02-26T04:18:27;5.60;99.90
32614;DHT22;19031;51.400;6.770;2024-02-26T04:20:52;5.60;99.90
32614;DHT22;19031;51.400;6.770;2024-02-26T04:23:18;5.60;99.90
32614;DHT22;19031;51.400;6.770;2024-02-26T04:25:44;5.70;99.90
32614;DHT22;19031;51.400;6.770;2024-02-26T04:28:10;5.60;99.90
32614;DHT22;19031;51.400;6.770;2024-02-26T04:30:36;5.50;99.90
32614;DHT22;19031;51.400;6.770;2024-02-26T04:33:01;5.50;99.90
32614;DHT22;19031;51.400;6.770;2024-02-26T04:35:27;5.50;99.90
32614;DHT22;19031;51.400;6.770;2024-02-26T04:37:53;5.50;99.90
32614;DHT22;19031;51.400;6.770;2024-02-26T04:40:18;5.60;99.90
32614;DHT22;19031;51.400;6.770;2024-02-26T04:42:44;5.60;99.90
32614;DHT22;19031;51.400;6.770;2024-02-26T04:45:09;5.60;99.90
32614;DHT22;19031;51.400;6.770;2024-02-26T04:47:35;5.60;99.90
32614;DHT22;19031;51.400;6.770;2024-02-26T04:50:01;5.60;99.90
32614;DHT22;19031;51.400;6.770;2024-02-26T04:52:26;5.60;99.90
32614;DHT22;19031;51.400;6.770;2024-02-26T04:54:52;5.60;99.90
32614;DHT22;19031;51.400;6.770;2024-02-26T04:57:17;5.60;99.90
32614;DHT22;19031;51.400;6.770;2024-02-26T04:59:44;5.50;99.90
32614;DHT22;19031;51.400;6.770;2024-02-26T05:02:11;5.60;99.90
32614;DHT22;19031;51.400;6.770;2024-02-26T05:04:37;5.60;99.90
32614;DHT22;19031;51.400;6.770;2024-02-26T05:07:02;5.60;99.90
32614;DHT22;19031;51.400;6.770;2024-02-26T05:09:28;5.50;99.90
32614;DHT22;19031;51.400;6.770;2024-02-26T05:11:54;5.50;99.90
32614;DHT22;19031;51.400;6.770;2024-02-26T05:14:20;5.40;99.90
32614;DHT22;19031;51.400;6.770;2024-02-26T05:16:45;5.40;99.90
32614;DHT22;19031;51.400;6.770;2024-02-26T05:19:11;5.40;99.90
32614;DHT22;19031;51.400;6.770;2024-02-26T05:21:36;5.40;99.90
32614;DHT22;19031;51.400;6.770;2024-02-26T05:24:02;5.40;99.90
32614;DHT22;19031;51.400;6.770;2024-02-26T05:26:28;5.20;99.90
32614;DHT22;19031;51.400;6.770;2024-02-26T05:28:53;5.40;99.90
32614;DHT22;19031;51.400;6.770;2024-02-26T05:31:25;5.30;99.90
32614;DHT22;19031;51.400;6.770;2024-02-26T05:33:50;5.30;99.90
32614;DHT22;19031;51.400;6.770;2024-02-26T05:36:20;5.40;99.90
32614;DHT22;19031;51.400;6.770;2024-02-26T05:38:47;5.40;99.90
32614;DHT22;19031;51.400;6.770;2024-02-26T05:41:15;5.30;99.90
32614;DHT22;19031;51.400;6.770;2024-02-26T05:43:41;5.30;99.90
32614;DHT22;19031;51.400;6.770;2024-02-26T05:46:06;5.30;99.90
32614;DHT22;19031;51.400;6.770;2024-02-26T05:48:32;5.30;99.90
32614;DHT22;19031;51.400;6.770;2024-02-26T05:50:58;5.30;99.90
32614;DHT22;19031;51.400;6.770;2024-02-26T05:53:23;5.30;99.90
32614;DHT22;19031;51.400;6.770;2024-02-26T05:55:49;5.30;99.90
32614;DHT22;19031;51.400;6.770;2024-02-26T05:58:14;5.20;99.90
32614;DHT22;19031;51.400;6.770;2024-02-26T06:00:40;5.30;99.90
32614;DHT22;19031;51.400;6.770;2024-02-26T06:03:06;5.30;99.90
32614;DHT22;19031;51.400;6.770;2024-02-26T06:05:31;5.30;99.90
32614;DHT22;19031;51.400;6.770;2024-02-26T06:07:57;5.20;99.90
32614;DHT22;19031;51.400;6.770;2024-02-26T06:10:22;5.30;99.90
32614;DHT22;19031;51.400;6.770;2024-02-26T06:12:48;5.20;99.90
32614;DHT22;19031;51.400;6.770;2024-02-26T06:15:13;5.20;99.90
32614;DHT22;19031;51.400;6.770;2024-02-26T06:17:39;5.20;99.90
32614;DHT22;19031;51.400;6.770;2024-02-26T06:20:05;5.20;99.90
32614;DHT22;19031;51.400;6.770;2024-02-26T06:22:31;5.20;99.90
32614;DHT22;19031;51.400;6.770;2024-02-26T06:24:57;5.20;99.90
32614;DHT22;19031;51.400;6.770;2024-02-26T06:27:23;5.30;99.90
32614;DHT22;19031;51.400;6.770;2024-02-26T06:29:49;5.20;99.90
32614;DHT22;19031;51.400;6.770;2024-02-26T06:32:15;5.30;99.90
32614;DHT22;19031;51.400;6.770;2024-02-26T06:34:40;5.20;99.90
32614;DHT22;19031;51.400;6.770;2024-02-26T06:37:07;5.30;99.90
32614;DHT22;19031;51.400;6.770;2024-02-26T06:39:33;5.30;99.90
32614;DHT22;19031;51.400;6.770;2024-02-26T06:41:59;5.30;99.90
32614;DHT22;19031;51.400;6.770;2024-02-26T06:44:27;5.30;99.90
32614;DHT22;19031;51.400;6.770;2024-02-26T06:46:58;5.30;99.90
32614;DHT22;19031;51.400;6.770;2024-02-26T06:49:24;5.20;99.90
32614;DHT22;19031;51.400;6.770;2024-02-26T06:51:49;5.30;99.90
32614;DHT22;19031;51.400;6.770;2024-02-26T06:54:15;5.30;99.90
32614;DHT22;19031;51.400;6.770;2024-02-26T06:56:40;5.40;99.90
32614;DHT22;19031;51.400;6.770;2024-02-26T06:59:06;5.40;99.90
32614;DHT22;19031;51.400;6.770;2024-02-26T07:01:31;5.40;99.90
32614;DHT22;19031;51.400;6.770;2024-02-26T07:03:57;5.40;99.90
32614;DHT22;19031;51.400;6.770;2024-02-26T07:06:22;5.40;99.90
32614;DHT22;19031;51.400;6.770;2024-02-26T07:08:48;5.40;99.90
32614;DHT22;19031;51.400;6.770;2024-02-26T07:11:13;5.40;99.90
32614;DHT22;19031;51.400;6.770;2024-02-26T07:13:39;5.40;99.90
32614;DHT22;19031;51.400;6.770;2024-02-26T07:16:05;5.50;99.90
32614;DHT22;19031;51.400;6.770;2024-02-26T07:18:31;5.40;99.90
32614;DHT22;19031;51.400;6.770;2024-02-26T07:20:57;5.50;99.90
32614;DHT22;19031;51.400;6.770;2024-02-26T07:23:22;5.50;99.90
32614;DHT22;19031;51.400;6.770;2024-02-26T07:25:48;5.50;99.90
32614;DHT22;19031;51.400;6.770;2024-02-26T07:28:15;5.40;99.90
32614;DHT22;19031;51.400;6.770;2024-02-26T07:30:41;5.50;99.90
32614;DHT22;19031;51.400;6.770;2024-02-26T07:33:07;5.50;99.90
32614;DHT22;19031;51.400;6.770;2024-02-26T07:35:32;5.50;99.90
32614;DHT22;19031;51.400;6.770;2024-02-26T07:37:58;5.50;99.90
32614;DHT22;19031;51.400;6.770;2024-02-26T07:40:24;5.60;99.90
32614;DHT22;19031;51.400;6.770;2024-02-26T07:42:50;5.60;99.90
32614;DHT22;19031;51.400;6.770;2024-02-26T07:45:15;5.70;99.90
32614;DHT22;19031;51.400;6.770;2024-02-26T07:47:43;5.70;99.90
32614;DHT22;19031;51.400;6.770;2024-02-26T07:50:09;5.60;99.90
32614;DHT22;19031;51.400;6.770;2024-02-26T07:52:34;5.60;99.90
32614;DHT22;19031;51.400;6.770;2024-02-26T07:55:00;5.60;99.90
32614;DHT22;19031;51.400;6.770;2024-02-26T07:57:25;5.70;99.90
32614;DHT22;19031;51.400;6.770;2024-02-26T07:59:51;5.70;99.90
32614;DHT22;19031;51.400;6.770;2024-02-26T08:02:16;5.60;99.90
32614;DHT22;19031;51.400;6.770;2024-02-26T08:04:42;5.70;99.90
32614;DHT22;19031;51.400;6.770;2024-02-26T08:07:08;5.60;99.90
32614;DHT22;19031;51.400;6.770;2024-02-26T08:09:33;5.80;99.90
32614;DHT22;19031;51.400;6.770;2024-02-26T08:11:59;5.70;99.90
32614;DHT22;19031;51.400;6.770;2024-02-26T08:14:24;5.60;99.90
32614;DHT22;19031;51.400;6.770;2024-02-26T08:16:50;5.80;99.90
32614;DHT22;19031;51.400;6.770;2024-02-26T08:19:15;5.90;99.90
32614;DHT22;19031;51.400;6.770;2024-02-26T08:21:42;5.80;99.90
32614;DHT22;19031;51.400;6.770;2024-02-26T08:24:08;5.80;99.90
32614;DHT22;19031;51.400;6.770;2024-02-26T08:26:34;5.70;99.90
32614;DHT22;19031;51.400;6.770;2024-02-26T08:28:59;5.80;99.90
32614;DHT22;19031;51.400;6.770;2024-02-26T08:31:25;5.80;99.90
32614;DHT22;19031;51.400;6.770;2024-02-26T08:33:51;5.80;99.90
32614;DHT22;19031;51.400;6.770;2024-02-26T08:36:16;5.80;99.90
32614;DHT22;19031;51.400;6.770;2024-02-26T08:38:42;5.80;99.90
32614;DHT22;19031;51.400;6.770;2024-02-26T08:41:07;5.80;99.90
32614;DHT22;19031;51.400;6.770;2024-02-26T08:43:33;5.80;99.90
32614;DHT22;19031;51.400;6.770;2024-02-26T08:45:58;5.80;99.90
32614;DHT22;19031;51.400;6.770;2024-02-26T08:48:24;5.90;99.90
32614;DHT22;19031;51.400;6.770;2024-02-26T08:50:49;5.90;99.90
32614;DHT22;19031;51.400;6.770;2024-02-26T08:53:15;6.00;99.90
32614;DHT22;19031;51.400;6.770;2024-02-26T08:55:40;6.00;99.90
32614;DHT22;19031;51.400;6.770;2024-02-26T08:58:06;5.90;99.90
32614;DHT22;19031;51.400;6.770;2024-02-26T09:00:31;6.10;99.90
32614;DHT22;19031;51.400;6.770;2024-02-26T09:02:57;6.00;99.90
32614;DHT22;19031;51.400;6.770;2024-02-26T09:05:23;6.00;99.90
32614;DHT22;19031;51.400;6.770;2024-02-26T09:07:48;6.10;99.90
32614;DHT22;19031;51.400;6.770;2024-02-26T09:10:14;6.10;99.90
32614;DHT22;19031;51.400;6.770;2024-02-26T09:12:39;6.10;99.90
32614;DHT22;19031;51.400;6.770;2024-02-26T09:15:06;6.10;99.90
32614;DHT22;19031;51.400;6.770;2024-02-26T09:17:32;6.10;99.90
32614;DHT22;19031;51.400;6.770;2024-02-26T09:19:58;6.00;99.90
32614;DHT22;19031;51.400;6.770;2024-02-26T09:22:23;6.00;99.90
32614;DHT22;19031;51.400;6.770;2024-02-26T09:24:49;6.10;99.90
32614;DHT22;19031;51.400;6.770;2024-02-26T09:27:16;6.10;99.90
32614;DHT22;19031;51.400;6.770;2024-02-26T09:29:42;6.10;99.90
32614;DHT22;19031;51.400;6.770;2024-02-26T09:32:08;6.20;99.90
32614;DHT22;19031;51.400;6.770;2024-02-26T09:34:34;6.20;99.90
32614;DHT22;19031;51.400;6.770;2024-02-26T09:37:00;6.20;99.90
32614;DHT22;19031;51.400;6.770;2024-02-26T09:39:26;6.20;99.90
32614;DHT22;19031;51.400;6.770;2024-02-26T09:41:53;6.30;99.90
32614;DHT22;19031;51.400;6.770;2024-02-26T09:44:19;6.10;99.90
32614;DHT22;19031;51.400;6.770;2024-02-26T09:46:48;6.20;99.90
32614;DHT22;19031;51.400;6.770;2024-02-26T09:49:17;6.30;99.90
32614;DHT22;19031;51.400;6.770;2024-02-26T09:51:43;6.20;99.90
32614;DHT22;19031;51.400;6.770;2024-02-26T09:54:10;6.20;99.90
32614;DHT22;19031;51.400;6.770;2024-02-26T09:56:39;6.20;99.90
32614;DHT22;19031;51.400;6.770;2024-02-26T09:59:13;6.20;99.90
32614;DHT22;19031;51.400;6.770;2024-02-26T10:01:42;6.30;99.90
32614;DHT22;19031;51.400;6.770;2024-02-26T10:04:08;6.10;99.90
32614;DHT22;19031;51.400;6.770;2024-02-26T10:06:36;6.20;99.90
32614;DHT22;19031;51.400;6.770;2024-02-26T10:09:02;6.20;99.90
32614;DHT22;19031;51.400;6.770;2024-02-26T10:11:32;6.30;99.90
32614;DHT22;19031;51.400;6.770;2024-02-26T10:13:57;6.20;99.90
32614;DHT22;19031;51.400;6.770;2024-02-26T10:16:24;6.30;99.90
32614;DHT22;19031;51.400;6.770;2024-02-26T10:18:51;6.30;99.90
32614;DHT22;19031;51.400;6.770;2024-02-26T10:21:18;6.40;99.90
32614;DHT22;19031;51.400;6.770;2024-02-26T10:23:44;6.30;99.90
32614;DHT22;19031;51.400;6.770;2024-02-26T10:26:12;6.40;99.90
32614;DHT22;19031;51.400;6.770;2024-02-26T10:28:39;6.50;99.90
32614;DHT22;19031;51.400;6.770;2024-02-26T10:31:04;6.60;99.90
32614;DHT22;19031;51.400;6.770;2024-02-26T10:33:33;6.60;99.90
32614;DHT22;19031;51.400;6.770;2024-02-26T10:36:01;6.70;99.90
32614;DHT22;19031;51.400;6.770;2024-02-26T10:38:26;6.60;99.90
32614;DHT22;19031;51.400;6.770;2024-02-26T10:40:52;6.50;99.90
32614;DHT22;19031;51.400;6.770;2024-02-26T10:43:17;6.60;99.90
32614;DHT22;19031;51.400;6.770;2024-02-26T10:45:44;6.60;99.90
32614;DHT22;19031;51.400;6.770;2024-02-26T10:48:14;6.60;99.90
32614;DHT22;19031;51.400;6.770;2024-02-26T10:50:40;6.70;99.90
32614;DHT22;19031;51.400;6.770;2024-02-26T10:53:13;6.60;99.90
32614;DHT22;19031;51.400;6.770;2024-02-26T10:55:42;6.70;99.90
32614;DHT22;19031;51.400;6.770;2024-02-26T10:58:09;6.80;99.90
32614;DHT22;19031;51.400;6.770;2024-02-26T11:00:36;6.80;99.90
32614;DHT22;19031;51.400;6.770;2024-02-26T11:03:04;6.90;99.90
32614;DHT22;19031;51.400;6.770;2024-02-26T11:05:31;6.90;99.90
32614;DHT22;19031;51.400;6.770;2024-02-26T11:07:59;6.90;99.90
32614;DHT22;19031;51.400;6.770;2024-02-26T11:10:27;6.90;99.90
32614;DHT22;19031;51.400;6.770;2024-02-26T11:12:55;7.00;99.90
32614;DHT22;19031;51.400;6.770;2024-02-26T11:15:22;7.00;99.90
32614;DHT22;19031;51.400;6.770;2024-02-26T11:17:48;7.10;99.90
32614;DHT22;19031;51.400;6.770;2024-02-26T11:20:14;7.20;99.90
32614;DHT22;19031;51.400;6.770;2024-02-26T11:22:40;7.30;99.90
32614;DHT22;19031;51.400;6.770;2024-02-26T11:25:06;7.30;99.90
32614;DHT22;19031;51.400;6.770;2024-02-26T11:27:37;7.30;99.90
32614;DHT22;19031;51.400;6.770;2024-02-26T11:30:05;7.30;99.90
32614;DHT22;19031;51.400;6.770;2024-02-26T11:32:34;7.40;99.90
32614;DHT22;19031;51.400;6.770;2024-02-26T11:35:00;7.20;99.90
32614;DHT22;19031;51.400;6.770;2024-02-26T11:37:26;7.10;99.90
32614;DHT22;19031;51.400;6.770;2024-02-26T11:39:52;7.30;99.90
32614;DHT22;19031;51.400;6.770;2024-02-26T11:42:23;7.40;99.90
32614;DHT22;19031;51.400;6.770;2024-02-26T11:44:48;7.50;99.90
32614;DHT22;19031;51.400;6.770;2024-02-26T11:47:19;7.60;99.90
32614;DHT22;19031;51.400;6.770;2024-02-26T11:49:44;7.70;99.90
32614;DHT22;19031;51.400;6.770;2024-02-26T11:52:10;7.70;99.90
32614;DHT22;19031;51.400;6.770;2024-02-26T11:54:52;7.70;99.90
32614;DHT22;19031;51.400;6.770;2024-02-26T11:57:30;7.80;99.90
32614;DHT22;19031;51.400;6.770;2024-02-26T12:00:10;7.90;99.90
32614;DHT22;19031;51.400;6.770;2024-02-26T12:05:04;8.00;99.90
32614;DHT22;19031;51.400;6.770;2024-02-26T12:07:30;7.90;99.90
32614;DHT22;19031;51.400;6.770;2024-02-26T12:12:53;7.90;99.90
32614;DHT22;19031;51.400;6.770;2024-02-26T12:15:19;7.90;99.90
32614;DHT22;19031;51.400;6.770;2024-02-26T12:17:48;8.00;99.90
32614;DHT22;19031;51.400;6.770;2024-02-26T12:20:16;8.10;99.90
32614;DHT22;19031;51.400;6.770;2024-02-26T12:22:45;8.10;99.90
32614;DHT22;19031;51.400;6.770;2024-02-26T12:25:13;8.10;99.90
32614;DHT22;19031;51.400;6.770;2024-02-26T12:27:39;8.10;99.90
32614;DHT22;19031;51.400;6.770;2024-02-26T12:30:05;8.00;99.90
32614;DHT22;19031;51.400;6.770;2024-02-26T12:32:32;8.10;99.90
32614;DHT22;19031;51.400;6.770;2024-02-26T12:34:57;8.00;99.90
32614;DHT22;19031;51.400;6.770;2024-02-26T12:37:23;8.20;99.90
32614;DHT22;19031;51.400;6.770;2024-02-26T12:39:50;8.00;99.90
32614;DHT22;19031;51.400;6.770;2024-02-26T12:42:15;8.00;99.90
32614;DHT22;19031;51.400;6.770;2024-02-26T12:44:41;7.90;99.90
32614;DHT22;19031;51.400;6.770;2024-02-26T12:47:06;7.80;99.90
32614;DHT22;19031;51.400;6.770;2024-02-26T12:49:32;7.80;99.90
32614;DHT22;19031;51.400;6.770;2024-02-26T12:51:57;7.90;99.90
32614;DHT22;19031;51.400;6.770;2024-02-26T12:54:30;7.80;99.90
32614;DHT22;19031;51.400;6.770;2024-02-26T12:56:58;7.70;99.90
32614;DHT22;19031;51.400;6.770;2024-02-26T12:59:24;7.80;99.90
32614;DHT22;19031;51.400;6.770;2024-02-26T13:01:49;7.80;99.90
32614;DHT22;19031;51.400;6.770;2024-02-26T13:04:15;7.80;99.90
32614;DHT22;19031;51.400;6.770;2024-02-26T13:06:42;7.80;99.90
32614;DHT22;19031;51.400;6.770;2024-02-26T13:09:07;7.70;99.90
32614;DHT22;19031;51.400;6.770;2024-02-26T13:11:34;7.60;99.90
32614;DHT22;19031;51.400;6.770;2024-02-26T13:14:00;7.50;99.90
32614;DHT22;19031;51.400;6.770;2024-02-26T13:16:25;7.50;99.90
32614;DHT22;19031;51.400;6.770;2024-02-26T13:18:51;7.60;99.90
32614;DHT22;19031;51.400;6.770;2024-02-26T13:21:18;7.50;99.90
32614;DHT22;19031;51.400;6.770;2024-02-26T13:23:49;7.50;99.90
32614;DHT22;19031;51.400;6.770;2024-02-26T13:26:15;7.50;99.90
32614;DHT22;19031;51.400;6.770;2024-02-26T13:28:41;7.50;99.90
32614;DHT22;19031;51.400;6.770;2024-02-26T13:31:08;7.60;99.90
32614;DHT22;19031;51.400;6.770;2024-02-26T13:33:34;7.60;99.90
32614;DHT22;19031;51.400;6.770;2024-02-26T13:36:00;7.50;99.90
32614;DHT22;19031;51.400;6.770;2024-02-26T13:38:26;7.60;99.90
32614;DHT22;19031;51.400;6.770;2024-02-26T13:40:52;7.60;99.90
32614;DHT22;19031;51.400;6.770;2024-02-26T13:43:18;7.60;99.90
32614;DHT22;19031;51.400;6.770;2024-02-26T13:45:45;7.50;99.90
32614;DHT22;19031;51.400;6.770;2024-02-26T13:48:11;7.50;99.90
32614;DHT22;19031;51.400;6.770;2024-02-26T13:50:41;7.60;99.90
32614;DHT22;19031;51.400;6.770;2024-02-26T13:53:08;7.50;99.90
32614;DHT22;19031;51.400;6.770;2024-02-26T13:55:34;7.50;99.90
32614;DHT22;19031;51.400;6.770;2024-02-26T13:58:00;7.60;99.90
32614;DHT22;19031;51.400;6.770;2024-02-26T14:00:29;7.60;99.90
32614;DHT22;19031;51.400;6.770;2024-02-26T14:02:59;7.50;99.90
32614;DHT22;19031;51.400;6.770;2024-02-26T14:05:25;7.50;99.90
32614;DHT22;19031;51.400;6.770;2024-02-26T14:07:51;7.60;99.90
32614;DHT22;19031;51.400;6.770;2024-02-26T14:10:17;7.70;99.90
32614;DHT22;19031;51.400;6.770;2024-02-26T14:12:43;7.70;99.90
32614;DHT22;19031;51.400;6.770;2024-02-26T14:15:10;7.70;99.90
32614;DHT22;19031;51.400;6.770;2024-02-26T14:17:35;7.60;99.90
32614;DHT22;19031;51.400;6.770;2024-02-26T14:20:01;7.80;99.90
32614;DHT22;19031;51.400;6.770;2024-02-26T14:22:28;7.70;99.90
32614;DHT22;19031;51.400;6.770;2024-02-26T14:24:56;7.60;99.90
32614;DHT22;19031;51.400;6.770;2024-02-26T14:27:21;7.60;99.90
32614;DHT22;19031;51.400;6.770;2024-02-26T14:29:48;7.60;99.90
32614;DHT22;19031;51.400;6.770;2024-02-26T14:32:14;7.60;99.90
32614;DHT22;19031;51.400;6.770;2024-02-26T14:34:39;7.60;99.90
32614;DHT22;19031;51.400;6.770;2024-02-26T14:37:05;7.50;99.90
32614;DHT22;19031;51.400;6.770;2024-02-26T14:39:32;7.50;99.90
32614;DHT22;19031;51.400;6.770;2024-02-26T14:41:58;7.40;99.90
32614;DHT22;19031;51.400;6.770;2024-02-26T14:44:24;7.40;99.90
32614;DHT22;19031;51.400;6.770;2024-02-26T14:46:50;7.40;99.90
32614;DHT22;19031;51.400;6.770;2024-02-26T14:49:16;7.40;99.90
32614;DHT22;19031;51.400;6.770;2024-02-26T14:51:43;7.50;99.90
32614;DHT22;19031;51.400;6.770;2024-02-26T14:54:11;7.50;99.90
32614;DHT22;19031;51.400;6.770;2024-02-26T14:56:36;7.40;99.90
32614;DHT22;19031;51.400;6.770;2024-02-26T14:59:02;7.40;99.90
32614;DHT22;19031;51.400;6.770;2024-02-26T15:01:28;7.50;99.90
32614;DHT22;19031;51.400;6.770;2024-02-26T15:03:53;7.40;99.90
32614;DHT22;19031;51.400;6.770;2024-02-26T15:06:19;7.40;99.90
32614;DHT22;19031;51.400;6.770;2024-02-26T15:08:44;7.40;99.90
32614;DHT22;19031;51.400;6.770;2024-02-26T15:11:10;7.40;99.90
32614;DHT22;19031;51.400;6.770;2024-02-26T15:13:36;7.40;99.90
32614;DHT22;19031;51.400;6.770;2024-02-26T15:16:02;7.30;99.90
32614;DHT22;19031;51.400;6.770;2024-02-26T15:18:27;7.30;99.90
32614;DHT22;19031;51.400;6.770;2024-02-26T15:20:53;7.30;99.90
32614;DHT22;19031;51.400;6.770;2024-02-26T15:23:18;7.30;99.90
32614;DHT22;19031;51.400;6.770;2024-02-26T15:25:44;7.30;99.90
32614;DHT22;19031;51.400;6.770;2024-02-26T15:28:10;7.30;99.90
32614;DHT22;19031;51.400;6.770;2024-02-26T15:30:39;7.20;99.90
32614;DHT22;19031;51.400;6.770;2024-02-26T15:33:04;7.20;99.90
32614;DHT22;19031;51.400;6.770;2024-02-26T15:35:30;7.20;99.90
32614;DHT22;19031;51.400;6.770;2024-02-26T15:37:56;7.20;99.90
32614;DHT22;19031;51.400;6.770;2024-02-26T15:40:22;7.20;99.90
32614;DHT22;19031;51.400;6.770;2024-02-26T15:42:47;7.20;99.90